createdAt,value
2018-05-16T00:00:30.256Z,1008.16
2018-05-16T00:01:30.220Z,1008.15
2018-05-16T00:02:30.167Z,1008.18
2018-05-16T00:03:30.120Z,1008.14
2018-05-16T00:04:30.085Z,1008.16
2018-05-16T00:05:30.079Z,1008.16
2018-05-16T00:06:30.009Z,1008.16
2018-05-16T00:07:29.984Z,1008.22
2018-05-16T00:08:29.980Z,1008.22
2018-05-16T00:09:29.904Z,1008.19
2018-05-16T00:10:29.872Z,1008.22
2018-05-16T00:11:29.850Z,1008.22
2018-05-16T00:12:29.788Z,1008.22
2018-05-16T00:13:29.757Z,1008.26
2018-05-16T00:14:29.714Z,1008.29
2018-05-16T00:15:29.671Z,1008.34
2018-05-16T00:16:29.656Z,1008.30
2018-05-16T00:17:29.601Z,1008.30
2018-05-16T00:18:29.559Z,1008.33
2018-05-16T00:19:29.529Z,1008.32
2018-05-16T00:20:29.522Z,1008.33
2018-05-16T00:21:29.517Z,1008.32
2018-05-16T00:22:29.426Z,1008.32
2018-05-16T00:23:40.530Z,1008.35
2018-05-16T00:24:29.323Z,1008.33
2018-05-16T00:25:29.277Z,1008.31
2018-05-16T00:26:29.275Z,1008.32
2018-05-16T00:27:29.208Z,1008.33
2018-05-16T00:28:29.166Z,1008.32
2018-05-16T00:29:29.142Z,1008.32
2018-05-16T00:30:29.096Z,1008.31
2018-05-16T00:31:29.065Z,1008.36
2018-05-16T00:32:29.053Z,1008.35
2018-05-16T00:33:28.979Z,1008.35
2018-05-16T00:34:28.970Z,1008.39
2018-05-16T00:35:28.935Z,1008.35
2018-05-16T00:36:28.889Z,1008.36
2018-05-16T00:37:28.836Z,1008.41
2018-05-16T00:38:28.857Z,1008.40
2018-05-16T00:39:28.771Z,1008.36
2018-05-16T00:40:28.727Z,1008.36
2018-05-16T00:41:28.702Z,1008.33
2018-05-16T00:42:28.679Z,1008.37
2018-05-16T00:43:28.615Z,1008.33
2018-05-16T00:44:28.602Z,1008.30
2018-05-16T00:45:28.551Z,1008.30
2018-05-16T00:46:28.492Z,1008.33
2018-05-16T00:47:39.554Z,1008.33
2018-05-16T00:48:28.421Z,1008.33
2018-05-16T00:49:28.400Z,1008.30
2018-05-16T00:50:28.353Z,1008.33
2018-05-16T00:51:28.300Z,1008.40
2018-05-16T00:52:28.271Z,1008.35
2018-05-16T00:53:28.227Z,1008.36
2018-05-16T00:54:28.207Z,1008.37
2018-05-16T00:55:28.148Z,1008.39
2018-05-16T00:56:28.101Z,1008.38
2018-05-16T00:57:28.095Z,1008.37
2018-05-16T00:58:28.045Z,1008.38
2018-05-16T00:59:28.037Z,1008.38
2018-05-16T01:00:27.967Z,1008.39
2018-05-16T01:01:27.932Z,1008.40
2018-05-16T01:02:27.884Z,1008.37
2018-05-16T01:03:27.842Z,1008.39
2018-05-16T01:04:27.838Z,1008.37
2018-05-16T01:05:27.765Z,1008.38
2018-05-16T01:06:27.731Z,1008.37
2018-05-16T01:07:27.706Z,1008.39
2018-05-16T01:08:27.668Z,1008.39
2018-05-16T01:09:37.603Z,1008.40
2018-05-16T01:10:27.572Z,1008.45
2018-05-16T01:11:27.541Z,1008.45
2018-05-16T01:12:27.504Z,1008.43
2018-05-16T01:13:27.468Z,1008.46
2018-05-16T01:14:27.428Z,1008.48
2018-05-16T01:15:27.417Z,1008.49
2018-05-16T01:16:27.349Z,1008.48
2018-05-16T01:17:27.320Z,1008.50
2018-05-16T01:18:27.273Z,1008.51
2018-05-16T01:19:27.235Z,1008.47
2018-05-16T01:20:27.192Z,1008.48
2018-05-16T01:21:27.212Z,1008.51
2018-05-16T01:22:27.146Z,1008.54
2018-05-16T01:23:27.089Z,1008.54
2018-05-16T01:24:27.055Z,1008.55
2018-05-16T01:25:27.034Z,1008.60
2018-05-16T01:26:26.991Z,1008.55
2018-05-16T01:27:26.987Z,1008.59
2018-05-16T01:28:26.909Z,1008.63
2018-05-16T01:29:26.858Z,1008.60
2018-05-16T01:30:26.819Z,1008.63
2018-05-16T01:31:26.818Z,1008.67
2018-05-16T01:32:26.783Z,1008.69
2018-05-16T01:33:26.753Z,1008.68
2018-05-16T01:34:26.693Z,1008.71
2018-05-16T01:35:26.640Z,1008.67
2018-05-16T01:36:26.608Z,1008.69
2018-05-16T01:37:26.600Z,1008.67
2018-05-16T01:38:26.525Z,1008.73
2018-05-16T01:39:26.484Z,1008.73
2018-05-16T01:40:26.455Z,1008.70
2018-05-16T01:41:26.409Z,1008.69
2018-05-16T01:42:26.381Z,1008.71
2018-05-16T01:43:26.357Z,1008.69
2018-05-16T01:44:26.300Z,1008.73
2018-05-16T01:45:26.262Z,1008.77
2018-05-16T01:46:26.219Z,1008.78
2018-05-16T01:47:26.190Z,1008.78
2018-05-16T01:48:26.156Z,1008.80
2018-05-16T01:49:26.136Z,1008.81
2018-05-16T01:50:26.078Z,1008.84
2018-05-16T01:51:26.035Z,1008.86
2018-05-16T01:52:26.007Z,1008.84
2018-05-16T01:53:25.960Z,1008.88
2018-05-16T01:54:25.952Z,1008.85
2018-05-16T01:55:25.885Z,1008.83
2018-05-16T01:56:25.847Z,1008.83
2018-05-16T01:57:25.823Z,1008.80
2018-05-16T01:58:25.773Z,1008.78
2018-05-16T01:59:25.745Z,1008.73
2018-05-16T02:00:25.727Z,1008.70
2018-05-16T02:01:25.662Z,1008.67
2018-05-16T02:02:25.621Z,1008.63
2018-05-16T02:03:25.583Z,1008.64
2018-05-16T02:04:25.542Z,1008.62
2018-05-16T02:05:25.523Z,1008.63
2018-05-16T02:06:25.509Z,1008.64
2018-05-16T02:07:25.435Z,1008.65
2018-05-16T02:08:25.397Z,1008.68
2018-05-16T02:09:25.395Z,1008.68
2018-05-16T02:10:25.323Z,1008.71
2018-05-16T02:11:25.285Z,1008.74
2018-05-16T02:12:25.272Z,1008.76
2018-05-16T02:13:25.202Z,1008.76
2018-05-16T02:14:25.165Z,1008.82
2018-05-16T02:15:25.126Z,1008.83
2018-05-16T02:16:25.093Z,1008.80
2018-05-16T02:17:25.094Z,1008.80
2018-05-16T02:18:25.027Z,1008.78
2018-05-16T02:19:24.986Z,1008.78
2018-05-16T02:20:24.945Z,1008.76
2018-05-16T02:21:24.906Z,1008.72
2018-05-16T02:22:24.891Z,1008.70
2018-05-16T02:23:24.824Z,1008.71
2018-05-16T02:24:24.789Z,1008.75
2018-05-16T02:25:24.750Z,1008.70
2018-05-16T02:26:24.715Z,1008.76
2018-05-16T02:27:24.669Z,1008.77
2018-05-16T02:28:24.655Z,1008.81
2018-05-16T02:29:24.601Z,1008.80
2018-05-16T02:30:24.559Z,1008.79
2018-05-16T02:31:24.523Z,1008.80
2018-05-16T02:32:24.492Z,1008.75
2018-05-16T02:33:24.440Z,1008.77
2018-05-16T02:34:24.425Z,1008.74
2018-05-16T02:35:24.364Z,1008.70
2018-05-16T02:36:24.330Z,1008.72
2018-05-16T02:37:24.365Z,1008.68
2018-05-16T02:38:24.256Z,1008.75
2018-05-16T02:39:24.245Z,1008.77
2018-05-16T02:40:24.181Z,1008.80
2018-05-16T02:41:24.146Z,1008.79
2018-05-16T02:42:24.109Z,1008.76
2018-05-16T02:43:24.075Z,1008.72
2018-05-16T02:44:24.035Z,1008.67
2018-05-16T02:45:24.026Z,1008.67
2018-05-16T02:46:23.954Z,1008.65
2018-05-16T02:47:23.921Z,1008.62
2018-05-16T02:48:23.877Z,1008.63
2018-05-16T02:49:23.845Z,1008.59
2018-05-16T02:50:23.804Z,1008.58
2018-05-16T02:51:23.787Z,1008.56
2018-05-16T02:52:23.731Z,1008.56
2018-05-16T02:53:23.681Z,1008.54
2018-05-16T02:54:23.657Z,1008.53
2018-05-16T02:55:23.609Z,1008.53
2018-05-16T02:56:23.570Z,1008.51
2018-05-16T02:57:23.569Z,1008.51
2018-05-16T02:58:23.502Z,1008.54
2018-05-16T02:59:23.475Z,1008.52
2018-05-16T03:00:23.434Z,1008.48
2018-05-16T03:01:23.393Z,1008.54
2018-05-16T03:02:23.388Z,1008.52
2018-05-16T03:03:23.327Z,1008.53
2018-05-16T03:04:23.284Z,1008.55
2018-05-16T03:05:23.245Z,1008.57
2018-05-16T03:06:23.199Z,1008.60
2018-05-16T03:07:23.199Z,1008.63
2018-05-16T03:08:23.213Z,1008.69
2018-05-16T03:09:23.101Z,1008.71
2018-05-16T03:10:23.065Z,1008.71
2018-05-16T03:11:23.022Z,1008.73
2018-05-16T03:12:22.985Z,1008.75
2018-05-16T03:13:22.959Z,1008.72
2018-05-16T03:14:22.899Z,1008.73
2018-05-16T03:15:22.856Z,1008.70
2018-05-16T03:16:22.817Z,1008.72
2018-05-16T03:17:22.808Z,1008.79
2018-05-16T03:18:22.765Z,1008.78
2018-05-16T03:19:22.735Z,1008.85
2018-05-16T03:20:22.677Z,1008.83
2018-05-16T03:21:22.654Z,1008.79
2018-05-16T03:22:22.601Z,1008.81
2018-05-16T03:23:22.569Z,1008.77
2018-05-16T03:24:22.549Z,1008.79
2018-05-16T03:25:22.471Z,1008.78
2018-05-16T03:26:22.441Z,1008.83
2018-05-16T03:27:22.395Z,1008.83
2018-05-16T03:28:22.357Z,1008.81
2018-05-16T03:29:22.333Z,1008.76
2018-05-16T03:30:22.316Z,1008.71
2018-05-16T03:31:33.641Z,1008.78
2018-05-16T03:32:22.218Z,1008.82
2018-05-16T03:33:22.174Z,1008.78
2018-05-16T03:34:22.136Z,1008.74
2018-05-16T03:35:22.088Z,1008.71
2018-05-16T03:36:22.075Z,1008.68
2018-05-16T03:37:22.015Z,1008.72
2018-05-16T03:38:21.976Z,1008.78
2018-05-16T03:39:21.946Z,1008.78
2018-05-16T03:40:21.908Z,1008.81
2018-05-16T03:41:21.875Z,1008.76
2018-05-16T03:42:21.866Z,1008.69
2018-05-16T03:43:21.787Z,1008.66
2018-05-16T03:44:21.745Z,1008.68
2018-05-16T03:45:21.717Z,1008.75
2018-05-16T03:46:21.689Z,1008.86
2018-05-16T03:47:21.668Z,1008.93
2018-05-16T03:48:21.602Z,1008.94
2018-05-16T03:49:21.560Z,1008.88
2018-05-16T03:50:21.516Z,1008.80
2018-05-16T03:51:21.492Z,1008.79
2018-05-16T03:52:21.481Z,1008.80
2018-05-16T03:53:21.414Z,1008.89
2018-05-16T03:54:21.378Z,1008.99
2018-05-16T03:55:21.358Z,1009.02
2018-05-16T03:56:21.301Z,1009.05
2018-05-16T03:57:21.257Z,1009.00
2018-05-16T03:58:21.247Z,1008.94
2018-05-16T03:59:21.181Z,1008.93
2018-05-16T04:00:21.143Z,1008.95
2018-05-16T04:01:21.092Z,1009.00
2018-05-16T04:02:21.085Z,1009.08
2018-05-16T04:03:21.028Z,1009.09
2018-05-16T04:04:21.025Z,1009.04
2018-05-16T04:05:20.948Z,1009.05
2018-05-16T04:06:20.918Z,1009.04
2018-05-16T04:07:20.927Z,1009.05
2018-05-16T04:08:20.858Z,1009.02
2018-05-16T04:09:20.791Z,1008.98
2018-05-16T04:10:20.773Z,1009.03
2018-05-16T04:11:20.720Z,1009.03
2018-05-16T04:12:20.719Z,1009.04
2018-05-16T04:13:20.733Z,1009.07
2018-05-16T04:14:20.619Z,1009.06
2018-05-16T04:15:20.584Z,1009.01
2018-05-16T04:16:20.518Z,1008.95
2018-05-16T04:17:20.484Z,1008.93
2018-05-16T04:18:20.454Z,1008.98
2018-05-16T04:19:20.405Z,1009.03
2018-05-16T04:20:20.388Z,1009.05
2018-05-16T04:21:20.324Z,1009.03
2018-05-16T04:22:20.284Z,1009.06
2018-05-16T04:23:20.256Z,1009.05
2018-05-16T04:24:20.223Z,1009.02
2018-05-16T04:25:20.213Z,1009.06
2018-05-16T04:26:20.167Z,1009.10
2018-05-16T04:27:20.105Z,1009.09
2018-05-16T04:28:20.056Z,1009.12
2018-05-16T04:29:20.020Z,1009.14
2018-05-16T04:30:19.984Z,1009.15
2018-05-16T04:31:19.975Z,1009.14
2018-05-16T04:32:19.913Z,1009.19
2018-05-16T04:33:19.865Z,1009.19
2018-05-16T04:34:19.823Z,1009.23
2018-05-16T04:35:19.790Z,1009.23
2018-05-16T04:36:19.754Z,1009.25
2018-05-16T04:37:19.733Z,1009.24
2018-05-16T04:38:19.684Z,1009.33
2018-05-16T04:39:19.629Z,1009.43
2018-05-16T04:40:19.601Z,1009.45
2018-05-16T04:41:19.553Z,1009.50
2018-05-16T04:42:29.197Z,1009.53
2018-05-16T04:43:19.481Z,1009.56
2018-05-16T04:44:19.437Z,1009.57
2018-05-16T04:45:19.396Z,1009.58
2018-05-16T04:46:19.351Z,1009.61
2018-05-16T04:47:19.357Z,1009.64
2018-05-16T04:48:19.287Z,1009.64
2018-05-16T04:49:19.243Z,1009.66
2018-05-16T04:50:19.200Z,1009.77
2018-05-16T04:51:19.161Z,1009.71
2018-05-16T04:52:19.151Z,1009.70
2018-05-16T04:53:19.094Z,1009.69
2018-05-16T04:54:19.054Z,1009.73
2018-05-16T04:55:19.018Z,1009.70
2018-05-16T04:56:18.985Z,1009.70
2018-05-16T04:57:18.962Z,1009.72
2018-05-16T04:58:18.894Z,1009.71
2018-05-16T04:59:18.866Z,1009.70
2018-05-16T05:00:18.844Z,1009.73
2018-05-16T05:01:18.805Z,1009.74
2018-05-16T05:02:18.777Z,1009.76
2018-05-16T05:03:18.711Z,1009.79
2018-05-16T05:04:18.669Z,1009.77
2018-05-16T05:05:18.645Z,1009.79
2018-05-16T05:06:18.668Z,1009.80
2018-05-16T05:07:18.592Z,1009.84
2018-05-16T05:08:18.534Z,1009.82
2018-05-16T05:09:18.495Z,1009.86
2018-05-16T05:10:18.454Z,1009.84
2018-05-16T05:11:18.416Z,1009.87
2018-05-16T05:12:18.403Z,1009.86
2018-05-16T05:13:18.351Z,1009.88
2018-05-16T05:14:18.319Z,1009.90
2018-05-16T05:15:18.286Z,1009.95
2018-05-16T05:16:18.252Z,1009.95
2018-05-16T05:17:18.229Z,1010.04
2018-05-16T05:18:18.249Z,1010.08
2018-05-16T05:19:18.152Z,1010.08
2018-05-16T05:20:18.106Z,1010.02
2018-05-16T05:21:18.067Z,1010.05
2018-05-16T05:22:18.060Z,1010.05
2018-05-16T05:23:18.005Z,1010.07
2018-05-16T05:24:17.971Z,1010.08
2018-05-16T05:25:17.961Z,1010.09
2018-05-16T05:26:17.929Z,1010.10
2018-05-16T05:27:17.911Z,1010.09
2018-05-16T05:28:17.856Z,1010.10
2018-05-16T05:29:29.219Z,1010.13
2018-05-16T05:30:17.788Z,1010.13
2018-05-16T05:31:17.734Z,1010.14
2018-05-16T05:32:17.711Z,1010.15
2018-05-16T05:33:17.659Z,1010.13
2018-05-16T05:34:17.620Z,1010.16
2018-05-16T05:35:17.602Z,1010.16
2018-05-16T05:36:17.562Z,1010.16
2018-05-16T05:37:17.556Z,1010.20
2018-05-16T05:38:17.514Z,1010.20
2018-05-16T05:39:17.463Z,1010.26
2018-05-16T05:40:17.417Z,1010.26
2018-05-16T05:41:17.387Z,1010.28
2018-05-16T05:42:17.373Z,1010.27
2018-05-16T05:43:17.422Z,1010.27
2018-05-16T05:44:17.294Z,1010.26
2018-05-16T05:45:17.261Z,1010.32
2018-05-16T05:46:17.225Z,1010.33
2018-05-16T05:47:17.212Z,1010.35
2018-05-16T05:48:17.155Z,1010.36
2018-05-16T05:49:17.181Z,1010.30
2018-05-16T05:50:17.101Z,1010.32
2018-05-16T05:51:17.058Z,1010.33
2018-05-16T05:52:26.772Z,1010.32
2018-05-16T05:53:17.012Z,1010.33
2018-05-16T05:54:16.988Z,1010.31
2018-05-16T05:55:16.952Z,1010.32
2018-05-16T05:56:16.896Z,1010.33
2018-05-16T05:57:26.803Z,1010.37
2018-05-16T05:58:16.831Z,1010.41
2018-05-16T05:59:16.800Z,1010.43
2018-05-16T06:00:16.776Z,1010.44
2018-05-16T06:01:16.726Z,1010.46
2018-05-16T06:02:16.746Z,1010.44
2018-05-16T06:03:16.679Z,1010.45
2018-05-16T06:04:16.637Z,1010.40
2018-05-16T06:05:16.603Z,1010.44
2018-05-16T06:06:16.573Z,1010.50
2018-05-16T06:07:16.561Z,1010.48
2018-05-16T06:08:16.518Z,1010.52
2018-05-16T06:09:16.487Z,1010.53
2018-05-16T06:10:16.440Z,1010.67
2018-05-16T06:11:16.411Z,1010.79
2018-05-16T06:12:16.403Z,1010.77
2018-05-16T06:13:16.343Z,1010.79
2018-05-16T06:14:16.319Z,1010.78
2018-05-16T06:15:16.282Z,1010.72
2018-05-16T06:16:26.305Z,1010.73
2018-05-16T06:17:16.232Z,1010.73
2018-05-16T06:18:16.182Z,1010.72
2018-05-16T06:19:16.146Z,1010.68
2018-05-16T06:20:16.126Z,1010.71
2018-05-16T06:21:16.092Z,1010.77
2018-05-16T06:22:16.077Z,1010.80
2018-05-16T06:23:16.052Z,1010.82
2018-05-16T06:24:16.006Z,1010.80
2018-05-16T06:25:15.957Z,1010.81
2018-05-16T06:26:15.921Z,1010.80
2018-05-16T06:27:15.982Z,1010.85
2018-05-16T06:28:15.870Z,1010.91
2018-05-16T06:29:15.836Z,1010.96
2018-05-16T06:30:15.801Z,1010.99
2018-05-16T06:31:15.766Z,1011.03
2018-05-16T06:32:15.752Z,1011.06
2018-05-16T06:33:15.699Z,1011.09
2018-05-16T06:34:15.673Z,1011.16
2018-05-16T06:35:15.636Z,1011.15
2018-05-16T06:36:15.611Z,1011.20
2018-05-16T06:37:15.590Z,1011.27
2018-05-16T06:38:15.538Z,1011.31
2018-05-16T06:39:15.525Z,1011.40
2018-05-16T06:40:15.479Z,1011.51
2018-05-16T06:41:15.455Z,1011.58
2018-05-16T06:42:15.448Z,1011.62
2018-05-16T06:43:15.389Z,1011.67
2018-05-16T06:44:15.356Z,1011.64
2018-05-16T06:45:15.320Z,1011.64
2018-05-16T06:46:15.284Z,1011.67
2018-05-16T06:47:15.285Z,1011.61
2018-05-16T06:48:15.229Z,1011.62
2018-05-16T06:49:15.190Z,1011.60
2018-05-16T06:50:15.157Z,1011.58
2018-05-16T06:51:15.124Z,1011.60
2018-05-16T06:52:15.121Z,1011.57
2018-05-16T06:53:15.077Z,1011.59
2018-05-16T06:54:15.045Z,1011.53
2018-05-16T06:55:15.023Z,1011.55
2018-05-16T06:56:15.003Z,1011.47
2018-05-16T06:57:14.975Z,1011.41
2018-05-16T06:58:14.934Z,1011.33
2018-05-16T06:59:14.880Z,1011.25
2018-05-16T07:00:14.849Z,1011.19
2018-05-16T07:01:14.832Z,1011.19
2018-05-16T07:02:14.814Z,1011.16
2018-05-16T07:03:14.756Z,1011.16
2018-05-16T07:04:14.727Z,1011.17
2018-05-16T07:05:14.700Z,1011.19
2018-05-16T07:06:14.670Z,1011.21
2018-05-16T07:07:14.657Z,1011.28
2018-05-16T07:08:14.606Z,1011.30
2018-05-16T07:09:14.570Z,1011.28
2018-05-16T07:10:14.543Z,1011.31
2018-05-16T07:11:14.508Z,1011.27
2018-05-16T07:12:14.501Z,1011.34
2018-05-16T07:13:14.453Z,1011.37
2018-05-16T07:14:14.422Z,1011.35
2018-05-16T07:15:14.406Z,1011.41
2018-05-16T07:16:14.355Z,1011.42
2018-05-16T07:17:14.343Z,1011.41
2018-05-16T07:18:14.289Z,1011.42
2018-05-16T07:19:14.265Z,1011.40
2018-05-16T07:20:14.234Z,1011.46
2018-05-16T07:21:14.219Z,1011.46
2018-05-16T07:22:14.189Z,1011.47
2018-05-16T07:23:14.136Z,1011.43
2018-05-16T07:24:14.106Z,1011.38
2018-05-16T07:25:14.082Z,1011.39
2018-05-16T07:26:14.061Z,1011.43
2018-05-16T07:27:14.040Z,1011.42
2018-05-16T07:28:13.991Z,1011.36
2018-05-16T07:29:13.949Z,1011.36
2018-05-16T07:30:13.917Z,1011.34
2018-05-16T07:31:13.887Z,1011.37
2018-05-16T07:32:13.882Z,1011.36
2018-05-16T07:33:13.838Z,1011.39
2018-05-16T07:34:13.813Z,1011.41
2018-05-16T07:35:13.765Z,1011.34
2018-05-16T07:36:13.748Z,1011.36
2018-05-16T07:37:13.737Z,1011.35
2018-05-16T07:38:13.694Z,1011.35
2018-05-16T07:39:13.655Z,1011.34
2018-05-16T07:40:13.621Z,1011.39
2018-05-16T07:41:13.609Z,1011.42
2018-05-16T07:42:13.585Z,1011.41
2018-05-16T07:43:13.532Z,1011.40
2018-05-16T07:44:13.498Z,1011.42
2018-05-16T07:45:13.470Z,1011.41
2018-05-16T07:46:13.446Z,1011.40
2018-05-16T07:47:13.519Z,1011.39
2018-05-16T07:48:13.386Z,1011.37
2018-05-16T07:49:13.351Z,1011.41
2018-05-16T07:50:13.323Z,1011.39
2018-05-16T07:51:13.354Z,1011.38
2018-05-16T07:52:13.286Z,1011.40
2018-05-16T07:53:13.225Z,1011.42
2018-05-16T07:54:13.189Z,1011.44
2018-05-16T07:55:13.165Z,1011.45
2018-05-16T07:56:13.137Z,1011.47
2018-05-16T07:57:13.122Z,1011.54
2018-05-16T07:58:13.105Z,1011.51
2018-05-16T07:59:13.079Z,1011.53
2018-05-16T08:00:13.023Z,1011.51
2018-05-16T08:01:12.989Z,1011.52
2018-05-16T08:02:12.948Z,1011.54
2018-05-16T08:03:12.921Z,1011.56
2018-05-16T08:04:12.910Z,1011.51
2018-05-16T08:05:12.861Z,1011.57
2018-05-16T08:06:12.838Z,1011.50
2018-05-16T08:07:12.799Z,1011.52
2018-05-16T08:08:12.770Z,1011.61
2018-05-16T08:09:12.769Z,1011.58
2018-05-16T08:10:12.715Z,1011.39
2018-05-16T08:11:12.688Z,1011.43
2018-05-16T08:12:12.742Z,1011.44
2018-05-16T08:13:12.615Z,1011.43
2018-05-16T08:14:12.610Z,1011.50
2018-05-16T08:15:12.569Z,1011.39
2018-05-16T08:16:12.525Z,1011.36
2018-05-16T08:17:12.510Z,1011.22
2018-05-16T08:18:12.469Z,1011.43
2018-05-16T08:19:12.446Z,1011.35
2018-05-16T08:20:12.440Z,1011.30
2018-05-16T08:21:12.375Z,1011.09
2018-05-16T08:22:22.416Z,1011.46
2018-05-16T08:23:12.310Z,1011.54
2018-05-16T08:24:12.283Z,1011.38
2018-05-16T08:25:12.258Z,1011.63
2018-05-16T08:26:12.253Z,1011.43
2018-05-16T08:27:12.195Z,1011.49
2018-05-16T08:28:12.170Z,1011.38
2018-05-16T08:29:12.140Z,1011.29
2018-05-16T08:30:12.112Z,1011.54
2018-05-16T08:31:12.134Z,1011.60
2018-05-16T08:32:12.035Z,1011.46
2018-05-16T08:33:12.007Z,1011.20
2018-05-16T08:34:11.975Z,1011.10
2018-05-16T08:35:11.959Z,1011.06
2018-05-16T08:36:21.921Z,1011.04
2018-05-16T08:37:11.899Z,1011.09
2018-05-16T08:38:11.868Z,1011.12
2018-05-16T08:39:11.845Z,1011.21
2018-05-16T08:40:11.816Z,1011.19
2018-05-16T08:41:11.767Z,1011.16
2018-05-16T08:42:11.761Z,1011.09
2018-05-16T08:43:11.704Z,1011.09
2018-05-16T08:44:11.674Z,1011.10
2018-05-16T08:45:11.655Z,1011.04
2018-05-16T08:46:11.622Z,1011.01
2018-05-16T08:47:11.625Z,1011.06
2018-05-16T08:48:11.562Z,1011.08
2018-05-16T08:49:11.529Z,1011.10
2018-05-16T08:50:11.508Z,1011.12
2018-05-16T08:51:11.469Z,1011.13
2018-05-16T08:52:11.465Z,1011.13
2018-05-16T08:53:11.397Z,1011.17
2018-05-16T08:54:11.366Z,1011.19
2018-05-16T08:55:11.339Z,1011.20
2018-05-16T08:56:11.345Z,1011.19
2018-05-16T08:57:11.287Z,1011.21
2018-05-16T08:58:11.245Z,1011.21
2018-05-16T08:59:11.215Z,1011.24
2018-05-16T09:00:11.189Z,1011.19
2018-05-16T09:01:11.180Z,1011.18
2018-05-16T09:02:11.120Z,1011.22
2018-05-16T09:03:11.106Z,1011.22
2018-05-16T09:04:11.053Z,1011.19
2018-05-16T09:05:11.024Z,1011.25
2018-05-16T09:06:11.009Z,1011.22
2018-05-16T09:07:10.954Z,1011.26
2018-05-16T09:08:10.922Z,1011.27
2018-05-16T09:09:10.893Z,1011.26
2018-05-16T09:10:10.863Z,1011.31
2018-05-16T09:11:10.827Z,1011.28
2018-05-16T09:12:10.819Z,1011.49
2018-05-16T09:13:10.793Z,1011.51
2018-05-16T09:14:10.729Z,1011.52
2018-05-16T09:15:10.698Z,1011.61
2018-05-16T09:16:10.689Z,1011.62
2018-05-16T09:17:10.700Z,1011.42
2018-05-16T09:18:10.606Z,1011.36
2018-05-16T09:19:10.576Z,1011.42
2018-05-16T09:20:10.544Z,1011.38
2018-05-16T09:21:10.504Z,1011.39
2018-05-16T09:22:10.511Z,1011.49
2018-05-16T09:23:10.444Z,1011.52
2018-05-16T09:24:10.417Z,1011.46
2018-05-16T09:25:10.377Z,1011.41
2018-05-16T09:26:10.345Z,1011.54
2018-05-16T09:27:10.333Z,1011.83
2018-05-16T09:28:10.279Z,1011.62
2018-05-16T09:29:10.258Z,1011.90
2018-05-16T09:30:10.226Z,1012.19
2018-05-16T09:31:10.182Z,1011.49
2018-05-16T09:32:10.153Z,1011.40
2018-05-16T09:33:10.152Z,1011.33
2018-05-16T09:34:10.102Z,1011.38
2018-05-16T09:35:10.095Z,1011.57
2018-05-16T09:36:10.035Z,1011.58
2018-05-16T09:37:10.012Z,1012.12
2018-05-16T09:38:09.992Z,1011.98
2018-05-16T09:39:09.943Z,1012.01
2018-05-16T09:40:09.930Z,1011.81
2018-05-16T09:41:09.882Z,1011.71
2018-05-16T09:42:09.852Z,1011.61
2018-05-16T09:43:09.836Z,1011.72
2018-05-16T09:44:09.779Z,1011.40
2018-05-16T09:45:09.762Z,1011.27
2018-05-16T09:46:09.720Z,1011.30
2018-05-16T09:47:09.690Z,1011.21
2018-05-16T09:48:09.657Z,1011.18
2018-05-16T09:49:09.647Z,1011.23
2018-05-16T09:50:09.592Z,1011.21
2018-05-16T09:51:09.559Z,1011.26
2018-05-16T09:52:09.533Z,1011.58
2018-05-16T09:53:09.507Z,1011.44
2018-05-16T09:54:09.500Z,1011.43
2018-05-16T09:55:09.454Z,1011.60
2018-05-16T09:56:09.416Z,1011.35
2018-05-16T09:57:09.384Z,1011.48
2018-05-16T09:58:09.369Z,1011.26
2018-05-16T09:59:09.327Z,1011.24
2018-05-16T10:00:09.312Z,1011.54
2018-05-16T10:01:09.253Z,1011.48
2018-05-16T10:02:09.222Z,1011.53
2018-05-16T10:03:09.190Z,1011.46
2018-05-16T10:04:09.176Z,1011.50
2018-05-16T10:05:09.133Z,1011.48
2018-05-16T10:06:09.101Z,1011.46
2018-05-16T10:07:09.074Z,1011.83
2018-05-16T10:08:09.047Z,1011.46
2018-05-16T10:09:19.001Z,1011.64
2018-05-16T10:10:08.979Z,1011.50
2018-05-16T10:11:08.959Z,1011.54
2018-05-16T10:12:08.913Z,1011.49
2018-05-16T10:13:08.884Z,1011.43
2018-05-16T10:14:08.871Z,1011.38
2018-05-16T10:15:08.831Z,1011.32
2018-05-16T10:16:08.797Z,1011.51
2018-05-16T10:17:08.801Z,1011.42
2018-05-16T10:18:08.732Z,1011.40
2018-05-16T10:19:08.714Z,1011.42
2018-05-16T10:20:08.670Z,1011.40
2018-05-16T10:21:08.628Z,1011.41
2018-05-16T10:22:08.603Z,1011.54
2018-05-16T10:23:08.576Z,1011.48
2018-05-16T10:24:08.579Z,1011.46
2018-05-16T10:25:08.517Z,1011.48
2018-05-16T10:26:08.470Z,1011.45
2018-05-16T10:27:08.446Z,1011.43
2018-05-16T10:28:08.416Z,1011.40
2018-05-16T10:29:08.379Z,1011.36
2018-05-16T10:30:08.371Z,1011.36
2018-05-16T10:31:08.310Z,1011.39
2018-05-16T10:32:08.279Z,1011.43
2018-05-16T10:33:08.242Z,1011.48
2018-05-16T10:34:08.209Z,1011.52
2018-05-16T10:35:08.191Z,1011.77
2018-05-16T10:36:08.183Z,1011.77
2018-05-16T10:37:08.129Z,1011.69
2018-05-16T10:38:08.091Z,1011.71
2018-05-16T10:39:08.056Z,1011.58
2018-05-16T10:40:08.046Z,1011.57
2018-05-16T10:41:07.991Z,1011.54
2018-05-16T10:42:07.963Z,1011.41
2018-05-16T10:43:07.925Z,1011.40
2018-05-16T10:44:07.896Z,1011.45
2018-05-16T10:45:07.865Z,1011.45
2018-05-16T10:46:07.849Z,1011.49
2018-05-16T10:47:07.803Z,1011.50
2018-05-16T10:48:07.773Z,1011.55
2018-05-16T10:49:07.749Z,1011.51
2018-05-16T10:50:07.708Z,1011.48
2018-05-16T10:51:07.699Z,1011.37
2018-05-16T10:52:07.662Z,1011.42
2018-05-16T10:53:07.615Z,1011.45
2018-05-16T10:54:07.577Z,1011.47
2018-05-16T10:55:07.552Z,1011.42
2018-05-16T10:56:07.524Z,1011.49
2018-05-16T10:57:07.508Z,1011.49
2018-05-16T10:58:07.447Z,1011.53
2018-05-16T10:59:07.421Z,1011.55
2018-05-16T11:00:07.388Z,1011.54
2018-05-16T11:01:07.359Z,1011.54
2018-05-16T11:02:07.326Z,1011.60
2018-05-16T11:03:07.304Z,1011.63
2018-05-16T11:04:07.249Z,1011.65
2018-05-16T11:05:07.219Z,1011.66
2018-05-16T11:06:07.186Z,1011.65
2018-05-16T11:07:07.164Z,1011.63
2018-05-16T11:08:07.152Z,1011.67
2018-05-16T11:09:07.093Z,1011.64
2018-05-16T11:10:07.070Z,1011.67
2018-05-16T11:11:07.024Z,1011.68
2018-05-16T11:12:07.019Z,1011.76
2018-05-16T11:13:06.964Z,1011.71
2018-05-16T11:14:06.930Z,1011.70
2018-05-16T11:15:06.902Z,1011.61
2018-05-16T11:16:06.868Z,1011.61
2018-05-16T11:17:06.853Z,1011.63
2018-05-16T11:18:06.793Z,1011.65
2018-05-16T11:19:06.774Z,1011.66
2018-05-16T11:20:06.742Z,1011.66
2018-05-16T11:21:06.703Z,1011.49
2018-05-16T11:22:06.716Z,1011.49
2018-05-16T11:23:06.634Z,1011.44
2018-05-16T11:24:06.604Z,1011.51
2018-05-16T11:25:06.581Z,1011.60
2018-05-16T11:26:06.540Z,1011.51
2018-05-16T11:27:06.541Z,1011.51
2018-05-16T11:28:06.478Z,1011.52
2018-05-16T11:29:06.438Z,1011.50
2018-05-16T11:30:06.418Z,1011.45
2018-05-16T11:31:06.384Z,1011.43
2018-05-16T11:32:06.349Z,1011.42
2018-05-16T11:33:06.338Z,1011.37
2018-05-16T11:34:06.285Z,1011.46
2018-05-16T11:35:06.254Z,1011.45
2018-05-16T11:36:06.218Z,1011.45
2018-05-16T11:37:06.187Z,1011.45
2018-05-16T11:38:06.169Z,1011.53
2018-05-16T11:39:06.124Z,1011.53
2018-05-16T11:40:06.089Z,1011.47
2018-05-16T11:41:06.062Z,1011.52
2018-05-16T11:42:06.031Z,1011.50
2018-05-16T11:43:06.012Z,1011.52
2018-05-16T11:44:05.955Z,1011.55
2018-05-16T11:45:05.935Z,1011.62
2018-05-16T11:46:05.900Z,1011.60
2018-05-16T11:47:26.859Z,1011.69
2018-05-16T11:48:05.867Z,1011.65
2018-05-16T11:49:05.805Z,1011.72
2018-05-16T11:50:05.899Z,1011.72
2018-05-16T11:51:05.739Z,1011.79
2018-05-16T11:52:05.704Z,1011.85
2018-05-16T11:53:05.699Z,1011.73
2018-05-16T11:54:05.643Z,1011.68
2018-05-16T11:55:05.608Z,1011.62
2018-05-16T11:56:05.573Z,1011.57
2018-05-16T11:57:05.541Z,1011.58
2018-05-16T11:58:05.541Z,1011.53
2018-05-16T11:59:05.487Z,1011.62
2018-05-16T12:00:05.449Z,1011.54
2018-05-16T12:01:05.424Z,1011.56
2018-05-16T12:02:05.394Z,1011.64
2018-05-16T12:03:05.390Z,1011.62
2018-05-16T12:04:05.328Z,1011.66
2018-05-16T12:05:05.296Z,1011.62